sensor_id;sensor_type;location;lat;lon;timestamp;pressure;altitude;pressure_sealevel;temperature;humidity
42289;BME280;30230;47.520;19.016;2023-03-16T00:00:09;99004.81;;;3.17;53.45
42289;BME280;30230;47.520;19.016;2023-03-16T00:02:13;99000.81;;;3.13;53.62
42289;BME280;30230;47.520;19.016;2023-03-16T00:04:13;98995.13;;;3.08;53.97
42289;BME280;30230;47.520;19.016;2023-03-16T00:06:13;99013.69;;;3.26;53.96
42289;BME280;30230;47.520;19.016;2023-03-16T00:08:15;99017.13;;;3.10;54.63
42289;BME280;30230;47.520;19.016;2023-03-16T00:10:16;99018.47;;;3.06;54.27
42289;BME280;30230;47.520;19.016;2023-03-16T00:12:18;99016.16;;;3.11;53.75
42289;BME280;30230;47.520;19.016;2023-03-16T00:14:18;99027.44;;;2.97;54.62
42289;BME280;30230;47.520;19.016;2023-03-16T00:16:19;99018.25;;;2.99;54.49
42289;BME280;30230;47.520;19.016;2023-03-16T00:18:22;99034.47;;;3.06;55.07
42289;BME280;30230;47.520;19.016;2023-03-16T00:20:26;99026.31;;;3.07;55.01
42289;BME280;30230;47.520;19.016;2023-03-16T00:22:28;99027.59;;;2.95;54.87
42289;BME280;30230;47.520;19.016;2023-03-16T00:24:28;99030.88;;;2.81;55.28
42289;BME280;30230;47.520;19.016;2023-03-16T00:26:29;99034.06;;;2.84;55.18
42289;BME280;30230;47.520;19.016;2023-03-16T00:28:32;99039.22;;;2.86;55.28
42289;BME280;30230;47.520;19.016;2023-03-16T00:30:33;99036.94;;;2.99;54.51
42289;BME280;30230;47.520;19.016;2023-03-16T00:32:35;99035.03;;;2.83;55.31
42289;BME280;30230;47.520;19.016;2023-03-16T00:34:36;99041.53;;;2.81;55.59
42289;BME280;30230;47.520;19.016;2023-03-16T00:36:37;99045.31;;;2.70;56.33
42289;BME280;30230;47.520;19.016;2023-03-16T00:38:39;99044.72;;;2.84;55.73
42289;BME280;30230;47.520;19.016;2023-03-16T00:40:45;99032.63;;;2.64;56.17
42289;BME280;30230;47.520;19.016;2023-03-16T00:42:46;99047.63;;;2.65;56.23
42289;BME280;30230;47.520;19.016;2023-03-16T00:44:46;99049.00;;;2.69;56.60
42289;BME280;30230;47.520;19.016;2023-03-16T00:46:46;99039.66;;;2.73;55.87
42289;BME280;30230;47.520;19.016;2023-03-16T00:48:47;99029.06;;;2.55;56.56
42289;BME280;30230;47.520;19.016;2023-03-16T00:50:47;99043.13;;;2.66;56.56
42289;BME280;30230;47.520;19.016;2023-03-16T00:52:48;99045.97;;;2.64;56.41
42289;BME280;30230;47.520;19.016;2023-03-16T00:54:49;99033.03;;;2.51;57.10
42289;BME280;30230;47.520;19.016;2023-03-16T00:56:52;99046.91;;;2.55;56.34
42289;BME280;30230;47.520;19.016;2023-03-16T00:58:52;99030.56;;;2.58;56.04
42289;BME280;30230;47.520;19.016;2023-03-16T01:00:56;99049.00;;;2.77;55.49
42289;BME280;30230;47.520;19.016;2023-03-16T01:02:58;99038.19;;;2.79;54.49
42289;BME280;30230;47.520;19.016;2023-03-16T01:04:58;99041.84;;;2.78;54.70
42289;BME280;30230;47.520;19.016;2023-03-16T01:06:59;99041.66;;;2.71;54.66
42289;BME280;30230;47.520;19.016;2023-03-16T01:08:59;99046.69;;;2.74;54.25
42289;BME280;30230;47.520;19.016;2023-03-16T01:11:11;99040.66;;;2.72;53.77
42289;BME280;30230;47.520;19.016;2023-03-16T01:13:12;99051.22;;;2.82;54.16
42289;BME280;30230;47.520;19.016;2023-03-16T01:15:12;99053.69;;;2.75;54.00
42289;BME280;30230;47.520;19.016;2023-03-16T01:17:15;99056.72;;;2.80;53.81
42289;BME280;30230;47.520;19.016;2023-03-16T01:19:16;99052.59;;;2.94;53.51
42289;BME280;30230;47.520;19.016;2023-03-16T01:21:17;99052.63;;;3.02;52.90
42289;BME280;30230;47.520;19.016;2023-03-16T01:23:18;99057.25;;;2.92;53.76
42289;BME280;30230;47.520;19.016;2023-03-16T01:25:18;99053.44;;;2.95;53.13
42289;BME280;30230;47.520;19.016;2023-03-16T01:27:20;99060.47;;;3.04;52.70
42289;BME280;30230;47.520;19.016;2023-03-16T01:29:20;99058.81;;;3.03;52.23
42289;BME280;30230;47.520;19.016;2023-03-16T01:31:21;99051.97;;;3.08;52.11
42289;BME280;30230;47.520;19.016;2023-03-16T01:33:24;99054.13;;;3.05;52.28
42289;BME280;30230;47.520;19.016;2023-03-16T01:35:24;99058.63;;;3.04;52.64
42289;BME280;30230;47.520;19.016;2023-03-16T01:37:25;99056.13;;;3.03;52.95
42289;BME280;30230;47.520;19.016;2023-03-16T01:39:25;99054.78;;;2.99;53.04
42289;BME280;30230;47.520;19.016;2023-03-16T01:41:26;99063.13;;;3.04;53.45
42289;BME280;30230;47.520;19.016;2023-03-16T01:43:30;99054.78;;;2.99;53.09
42289;BME280;30230;47.520;19.016;2023-03-16T01:48:05;99070.88;;;2.81;54.39
42289;BME280;30230;47.520;19.016;2023-03-16T01:50:07;99065.50;;;2.73;54.97
42289;BME280;30230;47.520;19.016;2023-03-16T01:52:12;99070.34;;;2.77;55.27
42289;BME280;30230;47.520;19.016;2023-03-16T01:56:21;99073.94;;;2.60;56.14
42289;BME280;30230;47.520;19.016;2023-03-16T01:58:22;99077.53;;;2.51;57.00
42289;BME280;30230;47.520;19.016;2023-03-16T02:00:23;99070.91;;;2.55;56.72
42289;BME280;30230;47.520;19.016;2023-03-16T02:02:30;99081.19;;;2.50;56.79
42289;BME280;30230;47.520;19.016;2023-03-16T02:06:39;99083.50;;;2.45;56.73
42289;BME280;30230;47.520;19.016;2023-03-16T02:08:41;99081.50;;;2.47;57.70
42289;BME280;30230;47.520;19.016;2023-03-16T02:10:42;99063.09;;;2.35;57.10
42289;BME280;30230;47.520;19.016;2023-03-16T02:12:44;99078.91;;;2.55;56.34
42289;BME280;30230;47.520;19.016;2023-03-16T02:14:47;99089.97;;;2.42;57.37
42289;BME280;30230;47.520;19.016;2023-03-16T02:16:47;99087.56;;;2.31;58.15
42289;BME280;30230;47.520;19.016;2023-03-16T02:18:49;99073.66;;;2.19;58.84
42289;BME280;30230;47.520;19.016;2023-03-16T02:23:38;99097.09;;;2.33;58.20
42289;BME280;30230;47.520;19.016;2023-03-16T02:28:13;99085.88;;;2.30;57.95
42289;BME280;30230;47.520;19.016;2023-03-16T02:30:19;99100.66;;;2.24;58.40
42289;BME280;30230;47.520;19.016;2023-03-16T02:32:21;99097.22;;;2.32;58.02
42289;BME280;30230;47.520;19.016;2023-03-16T02:34:23;99095.72;;;2.29;57.56
42289;BME280;30230;47.520;19.016;2023-03-16T02:36:24;99086.59;;;2.14;58.27
42289;BME280;30230;47.520;19.016;2023-03-16T02:38:24;99109.25;;;2.36;57.92
42289;BME280;30230;47.520;19.016;2023-03-16T02:40:27;99113.38;;;2.30;57.47
42289;BME280;30230;47.520;19.016;2023-03-16T02:42:28;99112.75;;;2.37;58.35
42289;BME280;30230;47.520;19.016;2023-03-16T02:44:36;99109.41;;;2.34;57.43
42289;BME280;30230;47.520;19.016;2023-03-16T02:46:41;99111.06;;;2.35;57.38
42289;BME280;30230;47.520;19.016;2023-03-16T02:48:54;99122.41;;;2.38;57.63
42289;BME280;30230;47.520;19.016;2023-03-16T02:50:57;99108.03;;;2.30;57.92
42289;BME280;30230;47.520;19.016;2023-03-16T02:52:58;99096.63;;;2.20;57.93
42289;BME280;30230;47.520;19.016;2023-03-16T02:54:58;99126.53;;;2.50;57.77
42289;BME280;30230;47.520;19.016;2023-03-16T02:56:59;99131.78;;;2.42;58.45
42289;BME280;30230;47.520;19.016;2023-03-16T02:58:59;99134.06;;;2.37;57.49
42289;BME280;30230;47.520;19.016;2023-03-16T03:01:00;99135.53;;;2.31;58.79
42289;BME280;30230;47.520;19.016;2023-03-16T03:03:00;99129.97;;;2.24;58.63
42289;BME280;30230;47.520;19.016;2023-03-16T03:05:01;99121.06;;;2.16;58.83
42289;BME280;30230;47.520;19.016;2023-03-16T03:07:01;99136.78;;;2.19;59.44
42289;BME280;30230;47.520;19.016;2023-03-16T03:09:04;99139.34;;;2.28;59.03
42289;BME280;30230;47.520;19.016;2023-03-16T03:11:08;99153.19;;;2.32;58.51
42289;BME280;30230;47.520;19.016;2023-03-16T03:13:08;99149.31;;;2.26;59.63
42289;BME280;30230;47.520;19.016;2023-03-16T03:15:09;99153.34;;;2.30;58.79
42289;BME280;30230;47.520;19.016;2023-03-16T03:17:09;99144.31;;;2.23;58.70
42289;BME280;30230;47.520;19.016;2023-03-16T03:19:12;99142.38;;;2.16;59.05
42289;BME280;30230;47.520;19.016;2023-03-16T03:21:13;99149.25;;;2.18;59.65
42289;BME280;30230;47.520;19.016;2023-03-16T03:23:14;99164.78;;;2.05;59.82
42289;BME280;30230;47.520;19.016;2023-03-16T03:25:16;99164.03;;;2.13;59.64
42289;BME280;30230;47.520;19.016;2023-03-16T03:27:17;99165.84;;;2.12;60.13
42289;BME280;30230;47.520;19.016;2023-03-16T03:29:18;99163.97;;;2.22;59.50
42289;BME280;30230;47.520;19.016;2023-03-16T03:31:20;99181.53;;;2.15;60.18
42289;BME280;30230;47.520;19.016;2023-03-16T03:33:21;99172.84;;;2.13;60.39
42289;BME280;30230;47.520;19.016;2023-03-16T03:35:22;99143.06;;;2.00;59.99
42289;BME280;30230;47.520;19.016;2023-03-16T03:37:22;99174.69;;;2.13;60.02
42289;BME280;30230;47.520;19.016;2023-03-16T03:39:24;99178.47;;;2.10;60.25
42289;BME280;30230;47.520;19.016;2023-03-16T03:41:24;99180.31;;;2.09;60.45
42289;BME280;30230;47.520;19.016;2023-03-16T03:43:25;99181.47;;;2.07;60.09
42289;BME280;30230;47.520;19.016;2023-03-16T03:45:26;99185.09;;;2.06;60.57
42289;BME280;30230;47.520;19.016;2023-03-16T03:47:26;99188.59;;;2.06;60.54
42289;BME280;30230;47.520;19.016;2023-03-16T03:49:27;99166.84;;;1.93;60.33
42289;BME280;30230;47.520;19.016;2023-03-16T03:51:27;99193.56;;;2.19;60.58
42289;BME280;30230;47.520;19.016;2023-03-16T03:53:28;99197.34;;;2.17;59.87
42289;BME280;30230;47.520;19.016;2023-03-16T03:55:28;99178.47;;;2.10;59.80
42289;BME280;30230;47.520;19.016;2023-03-16T03:57:29;99200.09;;;2.25;60.29
42289;BME280;30230;47.520;19.016;2023-03-16T03:59:30;99205.34;;;2.17;60.10
42289;BME280;30230;47.520;19.016;2023-03-16T04:01:30;99205.72;;;2.22;60.35
42289;BME280;30230;47.520;19.016;2023-03-16T04:03:31;99197.56;;;2.05;60.80
42289;BME280;30230;47.520;19.016;2023-03-16T04:05:31;99201.91;;;2.06;60.37
42289;BME280;30230;47.520;19.016;2023-03-16T04:07:32;99208.78;;;2.09;59.65
42289;BME280;30230;47.520;19.016;2023-03-16T04:09:32;99205.34;;;2.17;60.51
42289;BME280;30230;47.520;19.016;2023-03-16T04:11:33;99205.34;;;1.99;60.44
42289;BME280;30230;47.520;19.016;2023-03-16T04:13:33;99200.56;;;2.02;60.22
42289;BME280;30230;47.520;19.016;2023-03-16T04:15:34;99199.72;;;2.02;60.13
42289;BME280;30230;47.520;19.016;2023-03-16T04:17:37;99207.63;;;1.94;60.97
42289;BME280;30230;47.520;19.016;2023-03-16T04:19:38;99204.94;;;1.94;60.32
42289;BME280;30230;47.520;19.016;2023-03-16T04:21:39;99219.66;;;1.98;60.43
42289;BME280;30230;47.520;19.016;2023-03-16T04:23:39;99215.38;;;2.05;59.76
42289;BME280;30230;47.520;19.016;2023-03-16T04:25:42;99210.50;;;2.00;60.11
42289;BME280;30230;47.520;19.016;2023-03-16T04:27:42;99224.94;;;2.07;60.06
42289;BME280;30230;47.520;19.016;2023-03-16T04:29:43;99223.59;;;2.12;59.74
42289;BME280;30230;47.520;19.016;2023-03-16T04:31:44;99231.09;;;2.08;60.48
42289;BME280;30230;47.520;19.016;2023-03-16T04:33:44;99224.00;;;1.99;59.59
42289;BME280;30230;47.520;19.016;2023-03-16T04:35:45;99228.56;;;2.06;60.01
42289;BME280;30230;47.520;19.016;2023-03-16T04:37:45;99231.97;;;1.99;59.92
42289;BME280;30230;47.520;19.016;2023-03-16T04:39:46;99229.88;;;2.02;60.00
42289;BME280;30230;47.520;19.016;2023-03-16T04:41:46;99241.59;;;2.09;59.70
42289;BME280;30230;47.520;19.016;2023-03-16T04:43:47;99243.69;;;2.06;59.93
42289;BME280;30230;47.520;19.016;2023-03-16T04:45:47;99236.53;;;2.06;59.90
42289;BME280;30230;47.520;19.016;2023-03-16T04:47:48;99250.56;;;2.08;59.16
42289;BME280;30230;47.520;19.016;2023-03-16T04:49:49;99247.34;;;2.05;59.51
42289;BME280;30230;47.520;19.016;2023-03-16T04:51:50;99250.91;;;1.96;59.95
42289;BME280;30230;47.520;19.016;2023-03-16T04:53:51;99249.88;;;2.06;60.04
42289;BME280;30230;47.520;19.016;2023-03-16T04:55:51;99249.25;;;1.95;59.78
42289;BME280;30230;47.520;19.016;2023-03-16T04:57:52;99237.19;;;1.91;60.06
42289;BME280;30230;47.520;19.016;2023-03-16T04:59:52;99259.75;;;1.96;60.12
42289;BME280;30230;47.520;19.016;2023-03-16T05:01:53;99260.91;;;1.94;60.08
42289;BME280;30230;47.520;19.016;2023-03-16T05:03:53;99252.28;;;2.00;59.96
42289;BME280;30230;47.520;19.016;2023-03-16T05:05:53;99270.34;;;2.06;59.37
42289;BME280;30230;47.520;19.016;2023-03-16T05:07:54;99262.56;;;1.95;59.75
42289;BME280;30230;47.520;19.016;2023-03-16T05:09:54;99271.38;;;1.95;60.08
42289;BME280;30230;47.520;19.016;2023-03-16T05:11:55;99267.00;;;2.04;59.88
42289;BME280;30230;47.520;19.016;2023-03-16T05:13:55;99276.81;;;2.03;59.52
42289;BME280;30230;47.520;19.016;2023-03-16T05:15:55;99279.03;;;2.08;59.48
42289;BME280;30230;47.520;19.016;2023-03-16T05:17:56;99283.00;;;2.04;59.85
42289;BME280;30230;47.520;19.016;2023-03-16T05:19:56;99273.59;;;2.00;59.80
42289;BME280;30230;47.520;19.016;2023-03-16T05:21:57;99276.81;;;2.03;60.02
42289;BME280;30230;47.520;19.016;2023-03-16T05:23:57;99278.66;;;2.03;59.69
42289;BME280;30230;47.520;19.016;2023-03-16T05:25:58;99285.50;;;2.05;59.74
42289;BME280;30230;47.520;19.016;2023-03-16T05:28:02;99278.44;;;2.14;59.84
42289;BME280;30230;47.520;19.016;2023-03-16T05:30:03;99282.09;;;2.13;59.25
42289;BME280;30230;47.520;19.016;2023-03-16T05:32:05;99290.69;;;2.07;59.83
42289;BME280;30230;47.520;19.016;2023-03-16T05:34:05;99291.13;;;2.02;59.35
42289;BME280;30230;47.520;19.016;2023-03-16T05:36:06;99281.75;;;1.98;59.56
42289;BME280;30230;47.520;19.016;2023-03-16T05:38:07;99291.91;;;2.13;59.91
42289;BME280;30230;47.520;19.016;2023-03-16T05:40:10;99288.31;;;2.04;59.94
42289;BME280;30230;47.520;19.016;2023-03-16T05:42:16;99279.94;;;1.99;59.85
42289;BME280;30230;47.520;19.016;2023-03-16T05:44:16;99297.47;;;2.19;59.09
42289;BME280;30230;47.520;19.016;2023-03-16T05:46:16;99292.75;;;2.13;59.05
42289;BME280;30230;47.520;19.016;2023-03-16T05:48:17;99301.44;;;2.15;59.41
42289;BME280;30230;47.520;19.016;2023-03-16T05:50:18;99292.94;;;2.29;59.08
42289;BME280;30230;47.520;19.016;2023-03-16T05:52:18;99306.88;;;2.23;58.90
42289;BME280;30230;47.520;19.016;2023-03-16T05:54:18;99305.81;;;2.34;58.79
42289;BME280;30230;47.520;19.016;2023-03-16T05:56:19;99311.75;;;2.28;58.65
42289;BME280;30230;47.520;19.016;2023-03-16T05:58:19;99309.09;;;2.28;58.41
42289;BME280;30230;47.520;19.016;2023-03-16T06:00:20;99316.16;;;2.37;58.22
42289;BME280;30230;47.520;19.016;2023-03-16T06:02:21;99327.09;;;2.44;58.02
42289;BME280;30230;47.520;19.016;2023-03-16T06:04:22;99320.38;;;2.40;57.94
42289;BME280;30230;47.520;19.016;2023-03-16T06:06:22;99320.66;;;2.37;58.73
42289;BME280;30230;47.520;19.016;2023-03-16T06:08:23;99324.16;;;2.37;58.19
42289;BME280;30230;47.520;19.016;2023-03-16T06:10:23;99328.75;;;2.45;58.32
42289;BME280;30230;47.520;19.016;2023-03-16T06:12:25;99337.44;;;2.47;58.35
42289;BME280;30230;47.520;19.016;2023-03-16T06:14:25;99329.44;;;2.47;59.08
42289;BME280;30230;47.520;19.016;2023-03-16T06:16:26;99335.03;;;2.53;58.59
42289;BME280;30230;47.520;19.016;2023-03-16T06:18:26;99330.91;;;2.59;57.41
42289;BME280;30230;47.520;19.016;2023-03-16T06:20:27;99320.81;;;2.53;57.56
42289;BME280;30230;47.520;19.016;2023-03-16T06:22:27;99337.84;;;2.70;56.91
42289;BME280;30230;47.520;19.016;2023-03-16T06:24:29;99340.06;;;2.74;56.87
42289;BME280;30230;47.520;19.016;2023-03-16T06:26:30;99346.22;;;2.75;57.26
42289;BME280;30230;47.520;19.016;2023-03-16T06:28:30;99355.06;;;2.75;57.33
42289;BME280;30230;47.520;19.016;2023-03-16T06:30:31;99356.44;;;2.79;55.87
42289;BME280;30230;47.520;19.016;2023-03-16T06:32:31;99353.00;;;2.69;57.11
42289;BME280;30230;47.520;19.016;2023-03-16T06:34:31;99364.28;;;2.99;55.78
42289;BME280;30230;47.520;19.016;2023-03-16T06:36:33;99369.63;;;2.99;56.51
42289;BME280;30230;47.520;19.016;2023-03-16T06:38:33;99371.16;;;3.01;56.65
42289;BME280;30230;47.520;19.016;2023-03-16T06:40:34;99369.94;;;2.96;56.87
42289;BME280;30230;47.520;19.016;2023-03-16T06:42:34;99368.94;;;2.97;57.17
42289;BME280;30230;47.520;19.016;2023-03-16T06:44:34;99374.19;;;3.24;55.52
42289;BME280;30230;47.520;19.016;2023-03-16T06:46:35;99376.84;;;3.24;55.66
42289;BME280;30230;47.520;19.016;2023-03-16T06:48:35;99377.22;;;3.29;56.00
42289;BME280;30230;47.520;19.016;2023-03-16T06:50:36;99373.06;;;3.27;55.69
42289;BME280;30230;47.520;19.016;2023-03-16T06:52:37;99384.81;;;3.16;55.66
42289;BME280;30230;47.520;19.016;2023-03-16T06:54:37;99378.13;;;3.38;55.39
42289;BME280;30230;47.520;19.016;2023-03-16T06:56:38;99389.72;;;3.47;54.77
42289;BME280;30230;47.520;19.016;2023-03-16T06:58:39;99381.38;;;3.50;54.95
42289;BME280;30230;47.520;19.016;2023-03-16T07:00:39;99397.25;;;3.51;54.51
42289;BME280;30230;47.520;19.016;2023-03-16T07:02:40;99383.06;;;3.51;54.55
42289;BME280;30230;47.520;19.016;2023-03-16T07:04:42;99389.09;;;3.53;54.11
42289;BME280;30230;47.520;19.016;2023-03-16T07:06:42;99399.06;;;3.69;54.29
42289;BME280;30230;47.520;19.016;2023-03-16T07:08:43;99401.09;;;3.49;54.14
42289;BME280;30230;47.520;19.016;2023-03-16T07:10:43;99397.31;;;3.59;54.60
42289;BME280;30230;47.520;19.016;2023-03-16T07:12:44;99403.34;;;3.61;54.18
42289;BME280;30230;47.520;19.016;2023-03-16T07:14:45;99400.09;;;3.76;54.63
42289;BME280;30230;47.520;19.016;2023-03-16T07:16:45;99409.31;;;3.81;54.29
42289;BME280;30230;47.520;19.016;2023-03-16T07:18:46;99420.00;;;3.81;53.17
42289;BME280;30230;47.520;19.016;2023-03-16T07:20:46;99414.72;;;3.89;52.95
42289;BME280;30230;47.520;19.016;2023-03-16T07:22:47;99421.72;;;4.08;52.86
42289;BME280;30230;47.520;19.016;2023-03-16T07:24:47;99411.03;;;4.08;53.18
42289;BME280;30230;47.520;19.016;2023-03-16T07:26:56;99413.28;;;4.29;52.29
42289;BME280;30230;47.520;19.016;2023-03-16T07:28:56;99434.94;;;4.52;51.95
42289;BME280;30230;47.520;19.016;2023-03-16T07:30:57;99427.81;;;4.69;51.82
42289;BME280;30230;47.520;19.016;2023-03-16T07:32:57;99432.59;;;5.00;51.27
42289;BME280;30230;47.520;19.016;2023-03-16T07:34:58;99437.97;;;5.16;50.75
42289;BME280;30230;47.520;19.016;2023-03-16T07:36:58;99428.81;;;5.59;49.59
42289;BME280;30230;47.520;19.016;2023-03-16T07:38:59;99422.25;;;5.86;48.48
42289;BME280;30230;47.520;19.016;2023-03-16T07:41:00;99424.44;;;6.07;48.57
42289;BME280;30230;47.520;19.016;2023-03-16T07:43:00;99427.97;;;5.99;48.32
42289;BME280;30230;47.520;19.016;2023-03-16T07:45:02;99423.75;;;6.21;47.58
42289;BME280;30230;47.520;19.016;2023-03-16T07:47:03;99417.69;;;6.28;47.49
42289;BME280;30230;47.520;19.016;2023-03-16T07:49:04;99420.63;;;6.41;47.42
42289;BME280;30230;47.520;19.016;2023-03-16T07:51:05;99423.50;;;6.47;47.31
42289;BME280;30230;47.520;19.016;2023-03-16T07:53:05;99434.56;;;6.44;46.86
42289;BME280;30230;47.520;19.016;2023-03-16T07:55:06;99424.22;;;6.25;46.18
42289;BME280;30230;47.520;19.016;2023-03-16T07:57:07;99421.25;;;5.87;47.83
42289;BME280;30230;47.520;19.016;2023-03-16T07:59:07;99430.13;;;5.63;49.16
42289;BME280;30230;47.520;19.016;2023-03-16T08:01:08;99438.69;;;5.67;49.31
42289;BME280;30230;47.520;19.016;2023-03-16T08:03:10;99427.16;;;5.58;48.45
42289;BME280;30230;47.520;19.016;2023-03-16T08:05:11;99429.63;;;5.52;48.64
42289;BME280;30230;47.520;19.016;2023-03-16T08:07:13;99440.22;;;5.69;49.14
42289;BME280;30230;47.520;19.016;2023-03-16T08:09:14;99447.75;;;5.66;49.26
42289;BME280;30230;47.520;19.016;2023-03-16T08:11:14;99447.75;;;5.74;48.86
42289;BME280;30230;47.520;19.016;2023-03-16T08:13:22;99445.03;;;6.15;48.11
42289;BME280;30230;47.520;19.016;2023-03-16T08:15:23;99445.78;;;6.48;47.06
42289;BME280;30230;47.520;19.016;2023-03-16T08:17:24;99447.84;;;6.77;46.68
42289;BME280;30230;47.520;19.016;2023-03-16T08:19:24;99454.59;;;6.73;46.42
42289;BME280;30230;47.520;19.016;2023-03-16T08:21:25;99445.34;;;7.07;46.11
42289;BME280;30230;47.520;19.016;2023-03-16T08:23:25;99447.09;;;7.22;45.78
42289;BME280;30230;47.520;19.016;2023-03-16T08:25:26;99455.22;;;7.37;45.34
42289;BME280;30230;47.520;19.016;2023-03-16T08:27:27;99447.16;;;7.37;45.70
42289;BME280;30230;47.520;19.016;2023-03-16T08:29:28;99446.75;;;7.48;45.46
42289;BME280;30230;47.520;19.016;2023-03-16T08:31:29;99445.69;;;7.57;45.14
42289;BME280;30230;47.520;19.016;2023-03-16T08:33:29;99462.16;;;7.54;44.34
42289;BME280;30230;47.520;19.016;2023-03-16T08:35:29;99454.34;;;7.68;44.20
42289;BME280;30230;47.520;19.016;2023-03-16T08:37:30;99458.03;;;7.67;43.98
42289;BME280;30230;47.520;19.016;2023-03-16T08:39:31;99467.06;;;7.74;43.74
42289;BME280;30230;47.520;19.016;2023-03-16T08:41:31;99458.03;;;7.67;43.83
42289;BME280;30230;47.520;19.016;2023-03-16T08:43:32;99450.38;;;7.78;44.25
42289;BME280;30230;47.520;19.016;2023-03-16T08:45:33;99463.03;;;7.70;44.69
42289;BME280;30230;47.520;19.016;2023-03-16T08:47:37;99450.31;;;7.64;44.51
42289;BME280;30230;47.520;19.016;2023-03-16T08:49:39;99451.94;;;8.10;43.10
42289;BME280;30230;47.520;19.016;2023-03-16T08:51:40;99455.44;;;7.96;43.65
42289;BME280;30230;47.520;19.016;2023-03-16T08:53:42;99461.41;;;8.06;43.42
42289;BME280;30230;47.520;19.016;2023-03-16T08:55:43;99457.59;;;8.16;43.85
42289;BME280;30230;47.520;19.016;2023-03-16T08:57:44;99466.06;;;8.13;44.19
42289;BME280;30230;47.520;19.016;2023-03-16T08:59:45;99462.25;;;8.22;43.65
42289;BME280;30230;47.520;19.016;2023-03-16T09:01:45;99443.41;;;8.22;43.76
42289;BME280;30230;47.520;19.016;2023-03-16T09:03:47;99457.19;;;8.42;43.19
42289;BME280;30230;47.520;19.016;2023-03-16T09:05:47;99463.66;;;8.32;43.22
42289;BME280;30230;47.520;19.016;2023-03-16T09:07:48;99464.75;;;8.08;43.65
42289;BME280;30230;47.520;19.016;2023-03-16T09:09:49;99469.41;;;8.29;43.74
42289;BME280;30230;47.520;19.016;2023-03-16T09:11:50;99460.28;;;8.39;41.90
42289;BME280;30230;47.520;19.016;2023-03-16T09:13:51;99461.34;;;8.29;40.66
42289;BME280;30230;47.520;19.016;2023-03-16T09:15:51;99474.78;;;8.29;39.29
42289;BME280;30230;47.520;19.016;2023-03-16T09:17:52;99478.91;;;8.40;40.33
42289;BME280;30230;47.520;19.016;2023-03-16T09:19:53;99489.44;;;8.79;40.88
42289;BME280;30230;47.520;19.016;2023-03-16T09:21:54;99484.19;;;8.63;41.12
42289;BME280;30230;47.520;19.016;2023-03-16T09:23:54;99484.31;;;8.84;40.39
42289;BME280;30230;47.520;19.016;2023-03-16T09:26:00;99491.16;;;8.57;41.12
42289;BME280;30230;47.520;19.016;2023-03-16T09:28:01;99482.72;;;8.75;41.97
42289;BME280;30230;47.520;19.016;2023-03-16T09:30:04;99484.75;;;8.73;41.46
42289;BME280;30230;47.520;19.016;2023-03-16T09:32:05;99485.06;;;8.64;41.73
42289;BME280;30230;47.520;19.016;2023-03-16T09:34:05;99486.72;;;8.79;42.34
42289;BME280;30230;47.520;19.016;2023-03-16T09:36:06;99487.91;;;8.92;41.48
42289;BME280;30230;47.520;19.016;2023-03-16T09:38:06;99494.66;;;9.17;39.44
42289;BME280;30230;47.520;19.016;2023-03-16T09:40:11;99480.91;;;9.12;40.58
42289;BME280;30230;47.520;19.016;2023-03-16T09:42:16;99492.16;;;9.16;41.32
42289;BME280;30230;47.520;19.016;2023-03-16T09:44:46;99490.94;;;9.18;40.48
42289;BME280;30230;47.520;19.016;2023-03-16T09:46:52;99482.66;;;9.20;41.00
42289;BME280;30230;47.520;19.016;2023-03-16T09:48:54;99489.25;;;9.32;40.54
42289;BME280;30230;47.520;19.016;2023-03-16T09:50:57;99488.72;;;9.22;40.15
42289;BME280;30230;47.520;19.016;2023-03-16T09:55:35;99476.06;;;9.22;40.36
42289;BME280;30230;47.520;19.016;2023-03-16T09:57:40;99481.50;;;9.65;39.40
42289;BME280;30230;47.520;19.016;2023-03-16T09:59:43;99494.66;;;9.75;37.33
42289;BME280;30230;47.520;19.016;2023-03-16T10:02:03;99484.63;;;9.90;35.55
42289;BME280;30230;47.520;19.016;2023-03-16T10:04:15;99492.84;;;9.82;35.25
42289;BME280;30230;47.520;19.016;2023-03-16T10:06:22;99481.25;;;10.03;34.39
42289;BME280;30230;47.520;19.016;2023-03-16T10:08:33;99484.34;;;10.06;34.13
42289;BME280;30230;47.520;19.016;2023-03-16T10:12:50;99489.94;;;10.26;33.90
42289;BME280;30230;47.520;19.016;2023-03-16T10:15:04;99491.00;;;10.25;34.01
42289;BME280;30230;47.520;19.016;2023-03-16T10:19:28;99472.84;;;10.75;34.02
42289;BME280;30230;47.520;19.016;2023-03-16T10:21:37;99495.31;;;10.82;33.92
42289;BME280;30230;47.520;19.016;2023-03-16T10:23:39;99480.97;;;10.82;34.32
42289;BME280;30230;47.520;19.016;2023-03-16T10:25:45;99480.97;;;10.82;33.63
42289;BME280;30230;47.520;19.016;2023-03-16T10:27:45;99488.56;;;11.06;33.42
42289;BME280;30230;47.520;19.016;2023-03-16T10:29:47;99491.78;;;11.30;32.58
42289;BME280;30230;47.520;19.016;2023-03-16T10:31:48;99495.09;;;11.32;32.89
42289;BME280;30230;47.520;19.016;2023-03-16T10:33:56;99488.44;;;11.28;30.71
42289;BME280;30230;47.520;19.016;2023-03-16T10:40:52;99499.50;;;11.39;30.66
42289;BME280;30230;47.520;19.016;2023-03-16T10:42:53;99489.34;;;11.48;31.37
42289;BME280;30230;47.520;19.016;2023-03-16T10:44:58;99496.78;;;11.33;30.04
42289;BME280;30230;47.520;19.016;2023-03-16T10:47:04;99497.84;;;11.45;30.44
42289;BME280;30230;47.520;19.016;2023-03-16T10:49:18;99492.47;;;11.52;29.40
42289;BME280;30230;47.520;19.016;2023-03-16T10:51:23;99485.72;;;11.95;30.46
42289;BME280;30230;47.520;19.016;2023-03-16T10:53:28;99496.13;;;12.25;29.50
42289;BME280;30230;47.520;19.016;2023-03-16T10:55:31;99483.63;;;12.11;29.83
42289;BME280;30230;47.520;19.016;2023-03-16T10:57:41;99492.97;;;11.82;30.52
42289;BME280;30230;47.520;19.016;2023-03-16T10:59:46;99489.34;;;11.00;30.78
42289;BME280;30230;47.520;19.016;2023-03-16T11:01:47;99495.16;;;11.52;31.63
42289;BME280;30230;47.520;19.016;2023-03-16T11:03:51;99494.03;;;11.87;31.33
42289;BME280;30230;47.520;19.016;2023-03-16T11:06:00;99474.47;;;12.05;29.94
42289;BME280;30230;47.520;19.016;2023-03-16T11:10:40;99477.34;;;12.57;27.76